sensor_id;sensor_type;location;lat;lon;timestamp;P1;durP1;ratioP1;P2;durP2;ratioP2
12363;SDS011;6246;50.826;4.712;2023-12-20T00:01:31;30.17;;;25.73;;
12363;SDS011;6246;50.826;4.712;2023-12-20T00:03:57;29.77;;;25.67;;
12363;SDS011;6246;50.826;4.712;2023-12-20T00:06:23;29.00;;;25.50;;
12363;SDS011;6246;50.826;4.712;2023-12-20T00:08:49;32.83;;;25.10;;
12363;SDS011;6246;50.826;4.712;2023-12-20T00:11:15;30.87;;;26.57;;
12363;SDS011;6246;50.826;4.712;2023-12-20T00:13:41;32.30;;;26.60;;
12363;SDS011;6246;50.826;4.712;2023-12-20T00:16:07;32.90;;;25.63;;
12363;SDS011;6246;50.826;4.712;2023-12-20T00:18:33;50.97;;;42.43;;
12363;SDS011;6246;50.826;4.712;2023-12-20T00:20:59;49.43;;;41.50;;
12363;SDS011;6246;50.826;4.712;2023-12-20T00:23:25;42.33;;;36.70;;
12363;SDS011;6246;50.826;4.712;2023-12-20T00:25:51;38.77;;;33.63;;
12363;SDS011;6246;50.826;4.712;2023-12-20T00:28:17;40.57;;;34.37;;
12363;SDS011;6246;50.826;4.712;2023-12-20T00:30:43;44.00;;;37.73;;
12363;SDS011;6246;50.826;4.712;2023-12-20T00:33:09;44.47;;;35.63;;
12363;SDS011;6246;50.826;4.712;2023-12-20T00:35:35;40.73;;;35.27;;
12363;SDS011;6246;50.826;4.712;2023-12-20T00:38:01;41.77;;;35.70;;
12363;SDS011;6246;50.826;4.712;2023-12-20T00:40:27;42.47;;;35.63;;
12363;SDS011;6246;50.826;4.712;2023-12-20T00:42:53;43.30;;;37.43;;
12363;SDS011;6246;50.826;4.712;2023-12-20T00:45:19;48.03;;;40.83;;
12363;SDS011;6246;50.826;4.712;2023-12-20T00:47:45;44.93;;;39.77;;
12363;SDS011;6246;50.826;4.712;2023-12-20T00:50:12;47.07;;;38.60;;
12363;SDS011;6246;50.826;4.712;2023-12-20T00:52:37;45.57;;;38.17;;
12363;SDS011;6246;50.826;4.712;2023-12-20T00:55:04;44.47;;;37.97;;
12363;SDS011;6246;50.826;4.712;2023-12-20T00:57:30;44.93;;;38.00;;
12363;SDS011;6246;50.826;4.712;2023-12-20T00:59:56;43.53;;;37.23;;
12363;SDS011;6246;50.826;4.712;2023-12-20T01:02:22;44.57;;;38.50;;
12363;SDS011;6246;50.826;4.712;2023-12-20T01:04:48;43.47;;;37.93;;
12363;SDS011;6246;50.826;4.712;2023-12-20T01:07:14;44.10;;;37.70;;
12363;SDS011;6246;50.826;4.712;2023-12-20T01:09:40;43.07;;;37.43;;
12363;SDS011;6246;50.826;4.712;2023-12-20T01:12:06;41.03;;;36.53;;
12363;SDS011;6246;50.826;4.712;2023-12-20T01:14:32;42.97;;;37.80;;
12363;SDS011;6246;50.826;4.712;2023-12-20T01:16:58;46.70;;;37.17;;
12363;SDS011;6246;50.826;4.712;2023-12-20T01:19:25;40.53;;;35.20;;
12363;SDS011;6246;50.826;4.712;2023-12-20T01:21:52;41.23;;;35.30;;
12363;SDS011;6246;50.826;4.712;2023-12-20T01:24:18;38.90;;;33.90;;
12363;SDS011;6246;50.826;4.712;2023-12-20T01:26:44;38.63;;;34.43;;
12363;SDS011;6246;50.826;4.712;2023-12-20T01:29:10;41.33;;;35.10;;
12363;SDS011;6246;50.826;4.712;2023-12-20T01:31:38;41.00;;;35.70;;
12363;SDS011;6246;50.826;4.712;2023-12-20T01:34:04;42.00;;;36.53;;
12363;SDS011;6246;50.826;4.712;2023-12-20T01:36:30;43.40;;;37.03;;
12363;SDS011;6246;50.826;4.712;2023-12-20T01:38:56;55.20;;;45.93;;
12363;SDS011;6246;50.826;4.712;2023-12-20T01:41:22;49.10;;;41.63;;
12363;SDS011;6246;50.826;4.712;2023-12-20T01:43:48;47.30;;;40.77;;
12363;SDS011;6246;50.826;4.712;2023-12-20T01:46:14;46.33;;;39.60;;
12363;SDS011;6246;50.826;4.712;2023-12-20T01:48:40;47.10;;;39.90;;
12363;SDS011;6246;50.826;4.712;2023-12-20T01:51:06;48.57;;;40.87;;
12363;SDS011;6246;50.826;4.712;2023-12-20T01:53:33;49.37;;;42.17;;
12363;SDS011;6246;50.826;4.712;2023-12-20T01:55:59;50.43;;;41.27;;
12363;SDS011;6246;50.826;4.712;2023-12-20T01:58:25;47.77;;;40.50;;
12363;SDS011;6246;50.826;4.712;2023-12-20T02:00:51;46.87;;;41.73;;
12363;SDS011;6246;50.826;4.712;2023-12-20T02:03:17;49.93;;;42.50;;
12363;SDS011;6246;50.826;4.712;2023-12-20T02:05:44;48.03;;;41.93;;
12363;SDS011;6246;50.826;4.712;2023-12-20T02:08:10;48.93;;;42.47;;
12363;SDS011;6246;50.826;4.712;2023-12-20T02:10:36;48.87;;;41.87;;
12363;SDS011;6246;50.826;4.712;2023-12-20T02:13:03;50.40;;;42.87;;
12363;SDS011;6246;50.826;4.712;2023-12-20T02:15:29;48.43;;;40.87;;
12363;SDS011;6246;50.826;4.712;2023-12-20T02:17:55;46.87;;;41.37;;
12363;SDS011;6246;50.826;4.712;2023-12-20T02:20:21;49.80;;;41.50;;
12363;SDS011;6246;50.826;4.712;2023-12-20T02:22:47;47.33;;;40.30;;
12363;SDS011;6246;50.826;4.712;2023-12-20T02:25:13;47.43;;;41.90;;
12363;SDS011;6246;50.826;4.712;2023-12-20T02:27:40;50.97;;;41.97;;
12363;SDS011;6246;50.826;4.712;2023-12-20T02:30:06;51.87;;;42.67;;
12363;SDS011;6246;50.826;4.712;2023-12-20T02:32:32;47.90;;;41.30;;
12363;SDS011;6246;50.826;4.712;2023-12-20T02:34:58;49.03;;;42.80;;
12363;SDS011;6246;50.826;4.712;2023-12-20T02:37:24;46.93;;;41.83;;
12363;SDS011;6246;50.826;4.712;2023-12-20T02:39:50;46.43;;;41.07;;
12363;SDS011;6246;50.826;4.712;2023-12-20T02:42:16;45.90;;;40.40;;
12363;SDS011;6246;50.826;4.712;2023-12-20T02:44:42;47.27;;;40.53;;
12363;SDS011;6246;50.826;4.712;2023-12-20T02:47:08;45.17;;;40.10;;
12363;SDS011;6246;50.826;4.712;2023-12-20T02:49:34;45.37;;;39.17;;
12363;SDS011;6246;50.826;4.712;2023-12-20T02:52:00;45.70;;;39.40;;
12363;SDS011;6246;50.826;4.712;2023-12-20T02:54:26;45.20;;;39.47;;
12363;SDS011;6246;50.826;4.712;2023-12-20T02:56:52;46.27;;;39.27;;
12363;SDS011;6246;50.826;4.712;2023-12-20T02:59:18;44.23;;;38.50;;
12363;SDS011;6246;50.826;4.712;2023-12-20T03:01:45;45.23;;;39.50;;
12363;SDS011;6246;50.826;4.712;2023-12-20T03:04:11;44.93;;;38.70;;
12363;SDS011;6246;50.826;4.712;2023-12-20T03:06:37;42.20;;;37.00;;
12363;SDS011;6246;50.826;4.712;2023-12-20T03:09:03;45.77;;;38.73;;
12363;SDS011;6246;50.826;4.712;2023-12-20T03:11:29;41.97;;;37.37;;
12363;SDS011;6246;50.826;4.712;2023-12-20T03:13:55;42.03;;;36.83;;
12363;SDS011;6246;50.826;4.712;2023-12-20T03:16:22;42.07;;;36.17;;
12363;SDS011;6246;50.826;4.712;2023-12-20T03:18:47;39.87;;;34.80;;
12363;SDS011;6246;50.826;4.712;2023-12-20T03:21:13;43.33;;;37.23;;
12363;SDS011;6246;50.826;4.712;2023-12-20T03:23:40;41.07;;;34.40;;
12363;SDS011;6246;50.826;4.712;2023-12-20T03:26:09;40.07;;;34.93;;
12363;SDS011;6246;50.826;4.712;2023-12-20T03:28:38;39.70;;;35.33;;
12363;SDS011;6246;50.826;4.712;2023-12-20T03:31:04;39.37;;;34.97;;
12363;SDS011;6246;50.826;4.712;2023-12-20T03:33:30;40.43;;;35.43;;
12363;SDS011;6246;50.826;4.712;2023-12-20T03:35:56;38.83;;;32.87;;
12363;SDS011;6246;50.826;4.712;2023-12-20T03:38:22;37.63;;;33.10;;
12363;SDS011;6246;50.826;4.712;2023-12-20T03:40:49;35.60;;;31.57;;
12363;SDS011;6246;50.826;4.712;2023-12-20T03:43:15;38.07;;;32.70;;
12363;SDS011;6246;50.826;4.712;2023-12-20T03:45:41;38.87;;;32.30;;
12363;SDS011;6246;50.826;4.712;2023-12-20T03:48:08;36.53;;;31.27;;
12363;SDS011;6246;50.826;4.712;2023-12-20T03:50:34;35.57;;;31.53;;
12363;SDS011;6246;50.826;4.712;2023-12-20T03:53:00;36.73;;;31.87;;
12363;SDS011;6246;50.826;4.712;2023-12-20T03:55:26;35.20;;;30.70;;
12363;SDS011;6246;50.826;4.712;2023-12-20T03:57:52;35.07;;;30.37;;
12363;SDS011;6246;50.826;4.712;2023-12-20T04:00:18;33.87;;;28.87;;
12363;SDS011;6246;50.826;4.712;2023-12-20T04:02:45;32.40;;;28.80;;
12363;SDS011;6246;50.826;4.712;2023-12-20T04:05:11;32.47;;;28.67;;
12363;SDS011;6246;50.826;4.712;2023-12-20T04:07:37;33.07;;;29.23;;
12363;SDS011;6246;50.826;4.712;2023-12-20T04:10:03;32.87;;;28.53;;
12363;SDS011;6246;50.826;4.712;2023-12-20T04:12:29;31.67;;;27.93;;
12363;SDS011;6246;50.826;4.712;2023-12-20T04:14:56;30.83;;;26.33;;
12363;SDS011;6246;50.826;4.712;2023-12-20T04:17:23;31.80;;;27.17;;
12363;SDS011;6246;50.826;4.712;2023-12-20T04:19:49;31.57;;;25.87;;
12363;SDS011;6246;50.826;4.712;2023-12-20T04:22:16;30.17;;;26.10;;
12363;SDS011;6246;50.826;4.712;2023-12-20T04:24:42;30.93;;;26.30;;
12363;SDS011;6246;50.826;4.712;2023-12-20T04:27:08;29.43;;;25.73;;
12363;SDS011;6246;50.826;4.712;2023-12-20T04:29:35;27.97;;;23.70;;
12363;SDS011;6246;50.826;4.712;2023-12-20T04:32:01;27.97;;;24.60;;
12363;SDS011;6246;50.826;4.712;2023-12-20T04:34:27;26.43;;;23.40;;
12363;SDS011;6246;50.826;4.712;2023-12-20T04:36:53;27.73;;;23.67;;
12363;SDS011;6246;50.826;4.712;2023-12-20T04:39:19;27.10;;;23.47;;
12363;SDS011;6246;50.826;4.712;2023-12-20T04:41:45;26.47;;;22.70;;
12363;SDS011;6246;50.826;4.712;2023-12-20T04:44:12;26.53;;;23.07;;
12363;SDS011;6246;50.826;4.712;2023-12-20T04:46:38;27.37;;;23.33;;
12363;SDS011;6246;50.826;4.712;2023-12-20T04:49:04;25.60;;;21.57;;
12363;SDS011;6246;50.826;4.712;2023-12-20T04:51:32;25.60;;;21.47;;
12363;SDS011;6246;50.826;4.712;2023-12-20T04:53:59;24.93;;;22.10;;
12363;SDS011;6246;50.826;4.712;2023-12-20T04:56:25;24.63;;;20.63;;
12363;SDS011;6246;50.826;4.712;2023-12-20T04:58:51;24.87;;;20.77;;
12363;SDS011;6246;50.826;4.712;2023-12-20T05:01:17;24.10;;;19.67;;
12363;SDS011;6246;50.826;4.712;2023-12-20T05:03:43;23.80;;;20.13;;
12363;SDS011;6246;50.826;4.712;2023-12-20T05:06:09;22.83;;;19.03;;
12363;SDS011;6246;50.826;4.712;2023-12-20T05:08:35;24.07;;;19.70;;
12363;SDS011;6246;50.826;4.712;2023-12-20T05:11:01;24.50;;;20.20;;
12363;SDS011;6246;50.826;4.712;2023-12-20T05:13:27;23.20;;;19.40;;
12363;SDS011;6246;50.826;4.712;2023-12-20T05:15:53;22.67;;;18.53;;
12363;SDS011;6246;50.826;4.712;2023-12-20T05:18:22;22.43;;;18.10;;
12363;SDS011;6246;50.826;4.712;2023-12-20T05:20:49;23.70;;;19.27;;
12363;SDS011;6246;50.826;4.712;2023-12-20T05:23:15;20.53;;;17.37;;
12363;SDS011;6246;50.826;4.712;2023-12-20T05:25:42;20.33;;;17.13;;
12363;SDS011;6246;50.826;4.712;2023-12-20T05:28:08;20.40;;;17.20;;
12363;SDS011;6246;50.826;4.712;2023-12-20T05:30:34;20.77;;;17.30;;
12363;SDS011;6246;50.826;4.712;2023-12-20T05:33:00;20.50;;;16.50;;
12363;SDS011;6246;50.826;4.712;2023-12-20T05:35:26;18.10;;;15.90;;
12363;SDS011;6246;50.826;4.712;2023-12-20T05:37:52;18.77;;;15.87;;
12363;SDS011;6246;50.826;4.712;2023-12-20T05:40:18;20.73;;;16.33;;
12363;SDS011;6246;50.826;4.712;2023-12-20T05:42:44;18.23;;;14.77;;
12363;SDS011;6246;50.826;4.712;2023-12-20T05:45:10;17.73;;;14.40;;
12363;SDS011;6246;50.826;4.712;2023-12-20T05:47:36;18.70;;;14.87;;
12363;SDS011;6246;50.826;4.712;2023-12-20T05:50:02;18.13;;;15.33;;
12363;SDS011;6246;50.826;4.712;2023-12-20T05:52:29;19.20;;;15.07;;
12363;SDS011;6246;50.826;4.712;2023-12-20T05:54:55;17.97;;;14.43;;
12363;SDS011;6246;50.826;4.712;2023-12-20T05:57:23;17.93;;;13.47;;
12363;SDS011;6246;50.826;4.712;2023-12-20T05:59:48;16.03;;;13.37;;
12363;SDS011;6246;50.826;4.712;2023-12-20T06:02:15;18.10;;;13.20;;
12363;SDS011;6246;50.826;4.712;2023-12-20T06:04:44;16.37;;;13.53;;
12363;SDS011;6246;50.826;4.712;2023-12-20T06:07:13;17.40;;;13.50;;
12363;SDS011;6246;50.826;4.712;2023-12-20T06:09:39;17.13;;;12.90;;
12363;SDS011;6246;50.826;4.712;2023-12-20T06:12:06;15.87;;;11.97;;
12363;SDS011;6246;50.826;4.712;2023-12-20T06:14:33;15.37;;;12.23;;
12363;SDS011;6246;50.826;4.712;2023-12-20T06:16:59;15.23;;;12.30;;
12363;SDS011;6246;50.826;4.712;2023-12-20T06:19:26;16.73;;;12.40;;
12363;SDS011;6246;50.826;4.712;2023-12-20T06:21:52;14.73;;;12.13;;
12363;SDS011;6246;50.826;4.712;2023-12-20T06:24:18;15.20;;;11.97;;
12363;SDS011;6246;50.826;4.712;2023-12-20T06:26:44;17.23;;;12.17;;
12363;SDS011;6246;50.826;4.712;2023-12-20T06:29:10;13.90;;;11.00;;
12363;SDS011;6246;50.826;4.712;2023-12-20T06:31:36;15.63;;;11.47;;
12363;SDS011;6246;50.826;4.712;2023-12-20T06:34:02;14.77;;;11.07;;
12363;SDS011;6246;50.826;4.712;2023-12-20T06:36:28;16.43;;;11.20;;
12363;SDS011;6246;50.826;4.712;2023-12-20T06:38:54;13.57;;;10.90;;
12363;SDS011;6246;50.826;4.712;2023-12-20T06:41:20;13.90;;;10.13;;
12363;SDS011;6246;50.826;4.712;2023-12-20T06:43:46;14.63;;;10.57;;
12363;SDS011;6246;50.826;4.712;2023-12-20T06:46:12;12.90;;;9.90;;
12363;SDS011;6246;50.826;4.712;2023-12-20T06:48:38;13.73;;;9.60;;
12363;SDS011;6246;50.826;4.712;2023-12-20T06:51:05;12.87;;;9.90;;
12363;SDS011;6246;50.826;4.712;2023-12-20T06:53:31;12.47;;;9.57;;
12363;SDS011;6246;50.826;4.712;2023-12-20T06:55:57;11.83;;;9.60;;
12363;SDS011;6246;50.826;4.712;2023-12-20T06:58:23;11.63;;;9.10;;
12363;SDS011;6246;50.826;4.712;2023-12-20T07:00:50;11.13;;;8.67;;
12363;SDS011;6246;50.826;4.712;2023-12-20T07:03:16;12.10;;;9.03;;
12363;SDS011;6246;50.826;4.712;2023-12-20T07:05:43;11.53;;;8.83;;
12363;SDS011;6246;50.826;4.712;2023-12-20T07:08:09;12.93;;;9.37;;
12363;SDS011;6246;50.826;4.712;2023-12-20T07:10:36;13.30;;;8.80;;
12363;SDS011;6246;50.826;4.712;2023-12-20T07:13:02;12.07;;;8.27;;
12363;SDS011;6246;50.826;4.712;2023-12-20T07:15:28;12.00;;;7.93;;
12363;SDS011;6246;50.826;4.712;2023-12-20T07:17:54;11.07;;;8.03;;
12363;SDS011;6246;50.826;4.712;2023-12-20T07:20:20;12.27;;;9.03;;
12363;SDS011;6246;50.826;4.712;2023-12-20T07:22:46;11.07;;;8.50;;
12363;SDS011;6246;50.826;4.712;2023-12-20T07:25:12;9.80;;;7.23;;
12363;SDS011;6246;50.826;4.712;2023-12-20T07:27:38;9.57;;;7.50;;
12363;SDS011;6246;50.826;4.712;2023-12-20T07:30:04;11.20;;;7.53;;
12363;SDS011;6246;50.826;4.712;2023-12-20T07:32:31;10.50;;;7.53;;
12363;SDS011;6246;50.826;4.712;2023-12-20T07:34:57;10.87;;;7.77;;
12363;SDS011;6246;50.826;4.712;2023-12-20T07:37:23;10.20;;;7.07;;
12363;SDS011;6246;50.826;4.712;2023-12-20T07:39:49;9.20;;;6.70;;
12363;SDS011;6246;50.826;4.712;2023-12-20T07:42:15;9.27;;;6.87;;
12363;SDS011;6246;50.826;4.712;2023-12-20T07:44:41;8.20;;;6.60;;
12363;SDS011;6246;50.826;4.712;2023-12-20T07:47:07;10.57;;;7.10;;
12363;SDS011;6246;50.826;4.712;2023-12-20T07:49:33;10.17;;;7.20;;
12363;SDS011;6246;50.826;4.712;2023-12-20T07:51:59;7.73;;;6.43;;
12363;SDS011;6246;50.826;4.712;2023-12-20T07:54:25;8.63;;;6.37;;
12363;SDS011;6246;50.826;4.712;2023-12-20T07:56:51;9.93;;;6.17;;
12363;SDS011;6246;50.826;4.712;2023-12-20T07:59:17;8.87;;;6.27;;
12363;SDS011;6246;50.826;4.712;2023-12-20T08:01:43;8.90;;;6.23;;
12363;SDS011;6246;50.826;4.712;2023-12-20T08:04:09;7.47;;;5.80;;
12363;SDS011;6246;50.826;4.712;2023-12-20T08:06:35;11.07;;;6.57;;
12363;SDS011;6246;50.826;4.712;2023-12-20T08:09:01;8.57;;;6.20;;
12363;SDS011;6246;50.826;4.712;2023-12-20T08:11:27;7.10;;;5.47;;
12363;SDS011;6246;50.826;4.712;2023-12-20T08:13:54;7.37;;;5.43;;
12363;SDS011;6246;50.826;4.712;2023-12-20T08:16:20;8.73;;;5.83;;
12363;SDS011;6246;50.826;4.712;2023-12-20T08:18:47;8.40;;;5.60;;
12363;SDS011;6246;50.826;4.712;2023-12-20T08:21:13;9.13;;;5.27;;
12363;SDS011;6246;50.826;4.712;2023-12-20T08:23:39;7.10;;;5.30;;
12363;SDS011;6246;50.826;4.712;2023-12-20T08:26:05;6.73;;;5.37;;
12363;SDS011;6246;50.826;4.712;2023-12-20T08:28:31;8.33;;;5.37;;
12363;SDS011;6246;50.826;4.712;2023-12-20T08:30:57;7.07;;;5.60;;
12363;SDS011;6246;50.826;4.712;2023-12-20T08:33:23;7.93;;;5.33;;
12363;SDS011;6246;50.826;4.712;2023-12-20T08:35:49;7.17;;;5.27;;
12363;SDS011;6246;50.826;4.712;2023-12-20T08:38:15;6.40;;;5.23;;
12363;SDS011;6246;50.826;4.712;2023-12-20T08:40:42;6.13;;;5.23;;
12363;SDS011;6246;50.826;4.712;2023-12-20T08:43:08;7.17;;;4.90;;
12363;SDS011;6246;50.826;4.712;2023-12-20T08:45:34;5.97;;;4.77;;
12363;SDS011;6246;50.826;4.712;2023-12-20T08:48:00;7.13;;;5.00;;
12363;SDS011;6246;50.826;4.712;2023-12-20T08:50:27;6.97;;;4.67;;
12363;SDS011;6246;50.826;4.712;2023-12-20T08:52:52;6.13;;;4.83;;
12363;SDS011;6246;50.826;4.712;2023-12-20T08:55:19;7.40;;;5.03;;
12363;SDS011;6246;50.826;4.712;2023-12-20T08:57:45;5.63;;;4.63;;
12363;SDS011;6246;50.826;4.712;2023-12-20T09:00:11;6.83;;;5.00;;
12363;SDS011;6246;50.826;4.712;2023-12-20T09:02:37;10.23;;;4.93;;
12363;SDS011;6246;50.826;4.712;2023-12-20T09:05:04;7.90;;;4.60;;
12363;SDS011;6246;50.826;4.712;2023-12-20T09:07:30;8.17;;;4.93;;
12363;SDS011;6246;50.826;4.712;2023-12-20T09:09:57;5.13;;;4.57;;
12363;SDS011;6246;50.826;4.712;2023-12-20T09:12:23;6.53;;;4.20;;
12363;SDS011;6246;50.826;4.712;2023-12-20T09:14:49;4.50;;;3.80;;
12363;SDS011;6246;50.826;4.712;2023-12-20T09:17:16;6.97;;;4.20;;
12363;SDS011;6246;50.826;4.712;2023-12-20T09:19:42;8.43;;;4.60;;
12363;SDS011;6246;50.826;4.712;2023-12-20T09:22:09;5.00;;;4.00;;
12363;SDS011;6246;50.826;4.712;2023-12-20T09:24:35;3.90;;;3.40;;
12363;SDS011;6246;50.826;4.712;2023-12-20T09:27:01;6.33;;;4.23;;
12363;SDS011;6246;50.826;4.712;2023-12-20T09:29:28;5.03;;;3.97;;
12363;SDS011;6246;50.826;4.712;2023-12-20T09:31:54;4.77;;;3.80;;
12363;SDS011;6246;50.826;4.712;2023-12-20T09:34:22;6.43;;;3.97;;
12363;SDS011;6246;50.826;4.712;2023-12-20T09:36:48;8.40;;;4.00;;
12363;SDS011;6246;50.826;4.712;2023-12-20T09:39:14;6.57;;;4.10;;
12363;SDS011;6246;50.826;4.712;2023-12-20T09:41:43;6.77;;;3.90;;
12363;SDS011;6246;50.826;4.712;2023-12-20T09:44:16;6.97;;;3.80;;
12363;SDS011;6246;50.826;4.712;2023-12-20T09:46:45;5.07;;;3.73;;
12363;SDS011;6246;50.826;4.712;2023-12-20T09:49:15;4.67;;;3.70;;
12363;SDS011;6246;50.826;4.712;2023-12-20T09:51:42;7.87;;;3.77;;
12363;SDS011;6246;50.826;4.712;2023-12-20T09:54:09;5.77;;;3.80;;
12363;SDS011;6246;50.826;4.712;2023-12-20T09:56:35;5.83;;;3.83;;
12363;SDS011;6246;50.826;4.712;2023-12-20T09:59:03;7.50;;;3.80;;
12363;SDS011;6246;50.826;4.712;2023-12-20T10:01:29;5.70;;;3.80;;
12363;SDS011;6246;50.826;4.712;2023-12-20T10:03:55;4.57;;;3.60;;
12363;SDS011;6246;50.826;4.712;2023-12-20T10:06:22;6.70;;;4.13;;
12363;SDS011;6246;50.826;4.712;2023-12-20T10:08:47;7.53;;;4.23;;
12363;SDS011;6246;50.826;4.712;2023-12-20T10:11:14;7.17;;;4.43;;
12363;SDS011;6246;50.826;4.712;2023-12-20T10:13:40;6.80;;;3.90;;
12363;SDS011;6246;50.826;4.712;2023-12-20T10:16:06;5.20;;;3.40;;
12363;SDS011;6246;50.826;4.712;2023-12-20T10:18:33;5.93;;;3.83;;
12363;SDS011;6246;50.826;4.712;2023-12-20T10:21:00;4.43;;;3.30;;
12363;SDS011;6246;50.826;4.712;2023-12-20T10:23:26;6.33;;;4.07;;
12363;SDS011;6246;50.826;4.712;2023-12-20T10:25:55;5.47;;;3.60;;
12363;SDS011;6246;50.826;4.712;2023-12-20T10:28:23;7.00;;;3.90;;
12363;SDS011;6246;50.826;4.712;2023-12-20T10:30:53;7.07;;;4.20;;
12363;SDS011;6246;50.826;4.712;2023-12-20T10:33:28;6.67;;;4.20;;
12363;SDS011;6246;50.826;4.712;2023-12-20T10:35:55;6.83;;;4.03;;
12363;SDS011;6246;50.826;4.712;2023-12-20T10:38:21;6.03;;;3.83;;
12363;SDS011;6246;50.826;4.712;2023-12-20T10:40:48;5.23;;;4.00;;
12363;SDS011;6246;50.826;4.712;2023-12-20T10:43:14;6.30;;;3.87;;
12363;SDS011;6246;50.826;4.712;2023-12-20T10:45:41;9.33;;;4.30;;
12363;SDS011;6246;50.826;4.712;2023-12-20T10:48:09;9.37;;;4.20;;
12363;SDS011;6246;50.826;4.712;2023-12-20T10:50:39;6.03;;;3.77;;
12363;SDS011;6246;50.826;4.712;2023-12-20T10:53:06;8.27;;;4.53;;
12363;SDS011;6246;50.826;4.712;2023-12-20T10:55:33;10.37;;;4.40;;
12363;SDS011;6246;50.826;4.712;2023-12-20T10:58:03;7.00;;;4.03;;
12363;SDS011;6246;50.826;4.712;2023-12-20T11:00:32;9.73;;;4.13;;
12363;SDS011;6246;50.826;4.712;2023-12-20T11:03:00;11.63;;;4.07;;
12363;SDS011;6246;50.826;4.712;2023-12-20T11:05:43;8.60;;;4.10;;
12363;SDS011;6246;50.826;4.712;2023-12-20T11:13:17;8.20;;;3.97;;
12363;SDS011;6246;50.826;4.712;2023-12-20T11:15:46;7.57;;;3.60;;
12363;SDS011;6246;50.826;4.712;2023-12-20T11:18:12;8.63;;;4.17;;
12363;SDS011;6246;50.826;4.712;2023-12-20T11:20:38;10.73;;;3.87;;
12363;SDS011;6246;50.826;4.712;2023-12-20T11:23:05;7.67;;;3.77;;
12363;SDS011;6246;50.826;4.712;2023-12-20T11:25:42;5.87;;;3.80;;
12363;SDS011;6246;50.826;4.712;2023-12-20T11:28:11;5.70;;;3.47;;
12363;SDS011;6246;50.826;4.712;2023-12-20T11:30:56;5.33;;;3.70;;
12363;SDS011;6246;50.826;4.712;2023-12-20T11:33:45;9.03;;;3.80;;
12363;SDS011;6246;50.826;4.712;2023-12-20T11:36:18;6.80;;;3.60;;
12363;SDS011;6246;50.826;4.712;2023-12-20T11:38:53;6.63;;;3.57;;
12363;SDS011;6246;50.826;4.712;2023-12-20T11:41:21;8.40;;;3.80;;
12363;SDS011;6246;50.826;4.712;2023-12-20T11:43:48;7.50;;;3.80;;
12363;SDS011;6246;50.826;4.712;2023-12-20T11:46:14;6.67;;;3.67;;
12363;SDS011;6246;50.826;4.712;2023-12-20T11:48:40;7.47;;;3.90;;
12363;SDS011;6246;50.826;4.712;2023-12-20T11:51:09;5.60;;;3.30;;
12363;SDS011;6246;50.826;4.712;2023-12-20T11:53:36;5.67;;;3.50;;
12363;SDS011;6246;50.826;4.712;2023-12-20T11:56:02;4.07;;;3.10;;
12363;SDS011;6246;50.826;4.712;2023-12-20T11:58:29;6.27;;;3.73;;
12363;SDS011;6246;50.826;4.712;2023-12-20T12:00:55;5.63;;;3.27;;
12363;SDS011;6246;50.826;4.712;2023-12-20T12:03:22;4.03;;;3.13;;
12363;SDS011;6246;50.826;4.712;2023-12-20T12:05:49;6.40;;;3.23;;
12363;SDS011;6246;50.826;4.712;2023-12-20T12:08:15;6.50;;;3.47;;
12363;SDS011;6246;50.826;4.712;2023-12-20T12:10:42;5.47;;;3.53;;
12363;SDS011;6246;50.826;4.712;2023-12-20T12:13:08;5.20;;;3.20;;
12363;SDS011;6246;50.826;4.712;2023-12-20T12:15:34;6.80;;;3.60;;
12363;SDS011;6246;50.826;4.712;2023-12-20T12:18:01;7.17;;;3.30;;
12363;SDS011;6246;50.826;4.712;2023-12-20T12:20:27;6.27;;;3.17;;
12363;SDS011;6246;50.826;4.712;2023-12-20T12:22:59;5.00;;;3.10;;
12363;SDS011;6246;50.826;4.712;2023-12-20T12:25:25;4.17;;;3.00;;
12363;SDS011;6246;50.826;4.712;2023-12-20T12:27:52;5.63;;;3.53;;
12363;SDS011;6246;50.826;4.712;2023-12-20T12:30:18;4.50;;;3.07;;
12363;SDS011;6246;50.826;4.712;2023-12-20T12:32:44;5.33;;;3.00;;
12363;SDS011;6246;50.826;4.712;2023-12-20T12:35:10;5.17;;;3.20;;
12363;SDS011;6246;50.826;4.712;2023-12-20T12:37:37;9.67;;;3.20;;
12363;SDS011;6246;50.826;4.712;2023-12-20T12:40:09;6.03;;;3.67;;
12363;SDS011;6246;50.826;4.712;2023-12-20T12:42:36;6.73;;;3.30;;
12363;SDS011;6246;50.826;4.712;2023-12-20T12:45:02;7.60;;;3.80;;
12363;SDS011;6246;50.826;4.712;2023-12-20T12:47:28;6.57;;;3.47;;
12363;SDS011;6246;50.826;4.712;2023-12-20T12:49:54;5.47;;;4.03;;
12363;SDS011;6246;50.826;4.712;2023-12-20T12:52:20;6.10;;;3.70;;
12363;SDS011;6246;50.826;4.712;2023-12-20T12:54:46;9.70;;;4.07;;
12363;SDS011;6246;50.826;4.712;2023-12-20T12:57:13;11.57;;;4.07;;
12363;SDS011;6246;50.826;4.712;2023-12-20T12:59:39;13.03;;;4.20;;
12363;SDS011;6246;50.826;4.712;2023-12-20T13:02:06;12.97;;;6.10;;
12363;SDS011;6246;50.826;4.712;2023-12-20T13:04:33;11.40;;;6.87;;
12363;SDS011;6246;50.826;4.712;2023-12-20T13:06:59;14.07;;;6.60;;
12363;SDS011;6246;50.826;4.712;2023-12-20T13:09:25;9.03;;;6.30;;
12363;SDS011;6246;50.826;4.712;2023-12-20T13:11:51;13.30;;;6.50;;
12363;SDS011;6246;50.826;4.712;2023-12-20T13:14:17;9.37;;;6.30;;
12363;SDS011;6246;50.826;4.712;2023-12-20T13:16:43;9.47;;;6.03;;
12363;SDS011;6246;50.826;4.712;2023-12-20T13:19:10;9.70;;;6.10;;
12363;SDS011;6246;50.826;4.712;2023-12-20T13:21:36;11.73;;;6.00;;
12363;SDS011;6246;50.826;4.712;2023-12-20T13:24:02;7.73;;;5.30;;
12363;SDS011;6246;50.826;4.712;2023-12-20T13:26:28;7.23;;;5.10;;
12363;SDS011;6246;50.826;4.712;2023-12-20T13:28:54;10.67;;;5.23;;
12363;SDS011;6246;50.826;4.712;2023-12-20T13:31:20;10.53;;;5.03;;
12363;SDS011;6246;50.826;4.712;2023-12-20T13:33:46;9.37;;;4.70;;
12363;SDS011;6246;50.826;4.712;2023-12-20T13:36:12;7.30;;;4.43;;
12363;SDS011;6246;50.826;4.712;2023-12-20T13:38:39;9.90;;;4.90;;
12363;SDS011;6246;50.826;4.712;2023-12-20T13:41:05;6.67;;;4.77;;
12363;SDS011;6246;50.826;4.712;2023-12-20T13:43:31;8.33;;;4.60;;
12363;SDS011;6246;50.826;4.712;2023-12-20T13:45:58;5.33;;;4.13;;
12363;SDS011;6246;50.826;4.712;2023-12-20T13:48:24;5.73;;;4.33;;
12363;SDS011;6246;50.826;4.712;2023-12-20T13:50:50;5.40;;;3.97;;
12363;SDS011;6246;50.826;4.712;2023-12-20T13:53:16;6.83;;;4.03;;
12363;SDS011;6246;50.826;4.712;2023-12-20T13:55:42;6.30;;;4.40;;
12363;SDS011;6246;50.826;4.712;2023-12-20T13:58:08;6.80;;;4.00;;
12363;SDS011;6246;50.826;4.712;2023-12-20T14:00:37;6.80;;;3.87;;
12363;SDS011;6246;50.826;4.712;2023-12-20T14:03:03;5.83;;;3.90;;
12363;SDS011;6246;50.826;4.712;2023-12-20T14:05:29;4.57;;;3.80;;
12363;SDS011;6246;50.826;4.712;2023-12-20T14:07:55;5.20;;;3.67;;
12363;SDS011;6246;50.826;4.712;2023-12-20T14:10:25;4.70;;;3.37;;
12363;SDS011;6246;50.826;4.712;2023-12-20T14:12:52;5.63;;;3.63;;
12363;SDS011;6246;50.826;4.712;2023-12-20T14:15:18;3.77;;;3.40;;
12363;SDS011;6246;50.826;4.712;2023-12-20T14:17:44;8.33;;;3.47;;
12363;SDS011;6246;50.826;4.712;2023-12-20T14:20:10;4.47;;;3.67;;
12363;SDS011;6246;50.826;4.712;2023-12-20T14:22:39;3.97;;;3.43;;
12363;SDS011;6246;50.826;4.712;2023-12-20T14:25:10;5.47;;;3.53;;
12363;SDS011;6246;50.826;4.712;2023-12-20T14:27:37;3.43;;;3.07;;
12363;SDS011;6246;50.826;4.712;2023-12-20T14:30:03;4.93;;;3.60;;
12363;SDS011;6246;50.826;4.712;2023-12-20T14:32:29;6.67;;;3.40;;
12363;SDS011;6246;50.826;4.712;2023-12-20T14:34:55;9.37;;;3.50;;
12363;SDS011;6246;50.826;4.712;2023-12-20T14:37:21;4.93;;;3.20;;
12363;SDS011;6246;50.826;4.712;2023-12-20T14:39:47;4.27;;;3.17;;
12363;SDS011;6246;50.826;4.712;2023-12-20T14:42:13;5.47;;;3.40;;
12363;SDS011;6246;50.826;4.712;2023-12-20T14:44:39;7.23;;;3.43;;
12363;SDS011;6246;50.826;4.712;2023-12-20T14:47:06;5.27;;;3.30;;
12363;SDS011;6246;50.826;4.712;2023-12-20T14:49:32;5.23;;;3.33;;